sensor_id;sensor_type;location;lat;lon;timestamp;pressure;altitude;pressure_sealevel;temperature
18782;BMP180;9519;51.890;8.970;2022-09-03T00:04:36;99308.00;;;14.80
18782;BMP180;9519;51.890;8.970;2022-09-03T00:09:48;99329.00;;;14.80
18782;BMP180;9519;51.890;8.970;2022-09-03T00:14:59;99330.00;;;14.70
18782;BMP180;9519;51.890;8.970;2022-09-03T00:20:07;99336.00;;;14.70
18782;BMP180;9519;51.890;8.970;2022-09-03T00:25:17;99334.00;;;14.60
18782;BMP180;9519;51.890;8.970;2022-09-03T00:30:21;99334.00;;;14.60
18782;BMP180;9519;51.890;8.970;2022-09-03T00:35:29;99337.00;;;14.50
18782;BMP180;9519;51.890;8.970;2022-09-03T00:40:55;99324.00;;;14.40
18782;BMP180;9519;51.890;8.970;2022-09-03T00:46:14;99329.00;;;14.30
18782;BMP180;9519;51.890;8.970;2022-09-03T00:51:32;99327.00;;;14.20
18782;BMP180;9519;51.890;8.970;2022-09-03T00:56:45;99333.00;;;14.10
18782;BMP180;9519;51.890;8.970;2022-09-03T01:02:02;99218.00;;;14.00
18782;BMP180;9519;51.890;8.970;2022-09-03T01:07:13;99214.00;;;13.90
18782;BMP180;9519;51.890;8.970;2022-09-03T01:12:32;99216.00;;;13.80
18782;BMP180;9519;51.890;8.970;2022-09-03T01:17:54;99215.00;;;13.70
18782;BMP180;9519;51.890;8.970;2022-09-03T01:23:38;99224.00;;;13.60
18782;BMP180;9519;51.890;8.970;2022-09-03T01:28:56;99229.00;;;13.50
18782;BMP180;9519;51.890;8.970;2022-09-03T01:34:15;99226.00;;;13.50
18782;BMP180;9519;51.890;8.970;2022-09-03T01:39:28;99221.00;;;13.40
18782;BMP180;9519;51.890;8.970;2022-09-03T01:44:48;99230.00;;;13.30
18782;BMP180;9519;51.890;8.970;2022-09-03T01:50:01;99228.00;;;13.20
18782;BMP180;9519;51.890;8.970;2022-09-03T01:55:20;99216.00;;;13.20
18782;BMP180;9519;51.890;8.970;2022-09-03T02:00:30;99216.00;;;13.10
18782;BMP180;9519;51.890;8.970;2022-09-03T02:05:34;99222.00;;;13.10
18782;BMP180;9519;51.890;8.970;2022-09-03T02:10:43;99217.00;;;13.00
18782;BMP180;9519;51.890;8.970;2022-09-03T02:15:49;99223.00;;;12.90
18782;BMP180;9519;51.890;8.970;2022-09-03T02:20:53;99227.00;;;12.90
18782;BMP180;9519;51.890;8.970;2022-09-03T02:25:59;99240.00;;;12.90
18782;BMP180;9519;51.890;8.970;2022-09-03T02:31:03;99226.00;;;12.90
18782;BMP180;9519;51.890;8.970;2022-09-03T02:36:10;99226.00;;;12.90
18782;BMP180;9519;51.890;8.970;2022-09-03T02:41:13;99228.00;;;12.80
18782;BMP180;9519;51.890;8.970;2022-09-03T02:46:22;99220.00;;;12.80
18782;BMP180;9519;51.890;8.970;2022-09-03T02:51:32;99223.00;;;12.80
18782;BMP180;9519;51.890;8.970;2022-09-03T02:56:35;99221.00;;;12.70
18782;BMP180;9519;51.890;8.970;2022-09-03T03:01:39;99226.00;;;12.70
18782;BMP180;9519;51.890;8.970;2022-09-03T03:06:41;99223.00;;;12.70
18782;BMP180;9519;51.890;8.970;2022-09-03T03:11:43;99212.00;;;12.60
18782;BMP180;9519;51.890;8.970;2022-09-03T03:16:48;99209.00;;;12.60
18782;BMP180;9519;51.890;8.970;2022-09-03T03:21:50;99225.00;;;12.60
18782;BMP180;9519;51.890;8.970;2022-09-03T03:26:55;99220.00;;;12.60
18782;BMP180;9519;51.890;8.970;2022-09-03T03:32:00;99218.00;;;12.60
18782;BMP180;9519;51.890;8.970;2022-09-03T03:37:03;99229.00;;;12.60
18782;BMP180;9519;51.890;8.970;2022-09-03T03:42:05;99226.00;;;12.60
18782;BMP180;9519;51.890;8.970;2022-09-03T03:47:09;99232.00;;;12.60
18782;BMP180;9519;51.890;8.970;2022-09-03T03:52:12;99240.00;;;12.60
18782;BMP180;9519;51.890;8.970;2022-09-03T03:57:14;99233.00;;;12.60
18782;BMP180;9519;51.890;8.970;2022-09-03T04:02:17;99234.00;;;12.50
18782;BMP180;9519;51.890;8.970;2022-09-03T04:07:19;99232.00;;;12.40
18782;BMP180;9519;51.890;8.970;2022-09-03T04:12:21;99236.00;;;12.30
18782;BMP180;9519;51.890;8.970;2022-09-03T04:17:26;99229.00;;;12.20
18782;BMP180;9519;51.890;8.970;2022-09-03T04:22:28;99229.00;;;12.10
18782;BMP180;9519;51.890;8.970;2022-09-03T04:27:33;99219.00;;;12.00
18782;BMP180;9519;51.890;8.970;2022-09-03T04:32:37;99218.00;;;12.00
18782;BMP180;9519;51.890;8.970;2022-09-03T04:37:54;99223.00;;;11.90
18782;BMP180;9519;51.890;8.970;2022-09-03T04:42:57;99223.00;;;11.80
18782;BMP180;9519;51.890;8.970;2022-09-03T04:48:03;99220.00;;;11.70
18782;BMP180;9519;51.890;8.970;2022-09-03T04:53:05;99210.00;;;11.70
18782;BMP180;9519;51.890;8.970;2022-09-03T04:58:08;99221.00;;;11.60
18782;BMP180;9519;51.890;8.970;2022-09-03T05:03:11;99215.00;;;11.60
18782;BMP180;9519;51.890;8.970;2022-09-03T05:08:13;99227.00;;;11.70
18782;BMP180;9519;51.890;8.970;2022-09-03T05:13:15;99226.00;;;11.70
18782;BMP180;9519;51.890;8.970;2022-09-03T05:18:19;99222.00;;;11.70
18782;BMP180;9519;51.890;8.970;2022-09-03T05:23:21;99225.00;;;11.70
18782;BMP180;9519;51.890;8.970;2022-09-03T05:28:23;99222.00;;;11.70
18782;BMP180;9519;51.890;8.970;2022-09-03T05:33:32;99231.00;;;11.80
18782;BMP180;9519;51.890;8.970;2022-09-03T05:38:34;99227.00;;;11.90
18782;BMP180;9519;51.890;8.970;2022-09-03T05:43:37;99227.00;;;11.90
18782;BMP180;9519;51.890;8.970;2022-09-03T05:48:41;99225.00;;;12.10
18782;BMP180;9519;51.890;8.970;2022-09-03T05:53:45;99222.00;;;12.10
18782;BMP180;9519;51.890;8.970;2022-09-03T05:58:49;99230.00;;;12.20
18782;BMP180;9519;51.890;8.970;2022-09-03T06:03:57;99225.00;;;12.30
18782;BMP180;9519;51.890;8.970;2022-09-03T06:09:01;99230.00;;;12.40
18782;BMP180;9519;51.890;8.970;2022-09-03T06:14:06;99232.00;;;12.40
18782;BMP180;9519;51.890;8.970;2022-09-03T06:19:11;99232.00;;;12.60
18782;BMP180;9519;51.890;8.970;2022-09-03T06:24:16;99227.00;;;12.70
18782;BMP180;9519;51.890;8.970;2022-09-03T06:29:18;99226.00;;;12.80
18782;BMP180;9519;51.890;8.970;2022-09-03T06:34:22;99235.00;;;12.90
18782;BMP180;9519;51.890;8.970;2022-09-03T06:39:26;99236.00;;;13.10
18782;BMP180;9519;51.890;8.970;2022-09-03T06:44:28;99232.00;;;13.30
18782;BMP180;9519;51.890;8.970;2022-09-03T06:49:31;99235.00;;;13.50
18782;BMP180;9519;51.890;8.970;2022-09-03T06:54:34;99232.00;;;13.70
18782;BMP180;9519;51.890;8.970;2022-09-03T06:59:36;99228.00;;;13.90
18782;BMP180;9519;51.890;8.970;2022-09-03T07:04:41;99232.00;;;14.00
18782;BMP180;9519;51.890;8.970;2022-09-03T07:09:43;99232.00;;;14.20
18782;BMP180;9519;51.890;8.970;2022-09-03T07:14:46;99232.00;;;14.40
18782;BMP180;9519;51.890;8.970;2022-09-03T07:19:49;99232.00;;;14.60
18782;BMP180;9519;51.890;8.970;2022-09-03T07:24:51;99222.00;;;14.70
18782;BMP180;9519;51.890;8.970;2022-09-03T07:29:53;99213.00;;;14.90
18782;BMP180;9519;51.890;8.970;2022-09-03T07:34:57;99221.00;;;15.00
18782;BMP180;9519;51.890;8.970;2022-09-03T07:39:59;99223.00;;;15.20
18782;BMP180;9519;51.890;8.970;2022-09-03T07:45:01;99218.00;;;15.30
18782;BMP180;9519;51.890;8.970;2022-09-03T07:50:07;99213.00;;;15.50
18782;BMP180;9519;51.890;8.970;2022-09-03T07:55:09;99211.00;;;15.70
18782;BMP180;9519;51.890;8.970;2022-09-03T08:00:14;99206.00;;;15.90
18782;BMP180;9519;51.890;8.970;2022-09-03T08:05:19;99208.00;;;16.20
18782;BMP180;9519;51.890;8.970;2022-09-03T08:10:22;99208.00;;;16.40
18782;BMP180;9519;51.890;8.970;2022-09-03T08:15:24;99194.00;;;16.70
18782;BMP180;9519;51.890;8.970;2022-09-03T08:20:28;99201.00;;;16.90
18782;BMP180;9519;51.890;8.970;2022-09-03T08:25:30;99201.00;;;17.20
18782;BMP180;9519;51.890;8.970;2022-09-03T08:30:32;99193.00;;;17.50
18782;BMP180;9519;51.890;8.970;2022-09-03T08:35:37;99188.00;;;17.80
18782;BMP180;9519;51.890;8.970;2022-09-03T08:40:39;99191.00;;;18.10
18782;BMP180;9519;51.890;8.970;2022-09-03T08:45:43;99181.00;;;18.30
18782;BMP180;9519;51.890;8.970;2022-09-03T08:50:50;99177.00;;;18.50
18782;BMP180;9519;51.890;8.970;2022-09-03T08:56:06;99175.00;;;18.70
18782;BMP180;9519;51.890;8.970;2022-09-03T09:01:21;99164.00;;;18.90
18782;BMP180;9519;51.890;8.970;2022-09-03T09:06:34;99171.00;;;19.10
18782;BMP180;9519;51.890;8.970;2022-09-03T09:11:49;99158.00;;;19.30
18782;BMP180;9519;51.890;8.970;2022-09-03T09:17:06;99157.00;;;19.50
18782;BMP180;9519;51.890;8.970;2022-09-03T09:22:26;99153.00;;;19.60
18782;BMP180;9519;51.890;8.970;2022-09-03T09:27:32;99143.00;;;19.80
18782;BMP180;9519;51.890;8.970;2022-09-03T09:32:34;99133.00;;;20.00
18782;BMP180;9519;51.890;8.970;2022-09-03T09:37:49;99119.00;;;20.20
18782;BMP180;9519;51.890;8.970;2022-09-03T09:43:02;99125.00;;;20.40
18782;BMP180;9519;51.890;8.970;2022-09-03T09:48:12;99116.00;;;20.60
18782;BMP180;9519;51.890;8.970;2022-09-03T09:53:18;99110.00;;;20.80
18782;BMP180;9519;51.890;8.970;2022-09-03T09:58:23;99113.00;;;21.00
18782;BMP180;9519;51.890;8.970;2022-09-03T10:03:26;99102.00;;;21.10
18782;BMP180;9519;51.890;8.970;2022-09-03T10:08:30;99095.00;;;21.30
18782;BMP180;9519;51.890;8.970;2022-09-03T10:13:41;99100.00;;;21.50
18782;BMP180;9519;51.890;8.970;2022-09-03T10:18:51;99097.00;;;21.70
18782;BMP180;9519;51.890;8.970;2022-09-03T10:24:09;99087.00;;;21.80
18782;BMP180;9519;51.890;8.970;2022-09-03T10:29:20;99082.00;;;22.00
18782;BMP180;9519;51.890;8.970;2022-09-03T10:34:33;99084.00;;;22.20
18782;BMP180;9519;51.890;8.970;2022-09-03T10:39:59;99079.00;;;22.20
18782;BMP180;9519;51.890;8.970;2022-09-03T10:45:18;99072.00;;;22.30
18782;BMP180;9519;51.890;8.970;2022-09-03T10:50:26;99076.00;;;22.30
18782;BMP180;9519;51.890;8.970;2022-09-03T10:55:44;99083.00;;;22.40
18782;BMP180;9519;51.890;8.970;2022-09-03T11:00:56;99063.00;;;22.40
18782;BMP180;9519;51.890;8.970;2022-09-03T11:06:07;99069.00;;;22.40
18782;BMP180;9519;51.890;8.970;2022-09-03T11:11:18;99069.00;;;22.50
18782;BMP180;9519;51.890;8.970;2022-09-03T11:16:25;99060.00;;;22.60
18782;BMP180;9519;51.890;8.970;2022-09-03T11:21:31;99033.00;;;22.90
18782;BMP180;9519;51.890;8.970;2022-09-03T11:26:36;99131.00;;;23.00
18782;BMP180;9519;51.890;8.970;2022-09-03T11:31:53;99156.00;;;23.00
18782;BMP180;9519;51.890;8.970;2022-09-03T11:37:19;99159.00;;;23.20
18782;BMP180;9519;51.890;8.970;2022-09-03T11:42:30;99144.00;;;23.40
18782;BMP180;9519;51.890;8.970;2022-09-03T11:47:40;99141.00;;;23.60
18782;BMP180;9519;51.890;8.970;2022-09-03T11:52:42;99143.00;;;23.80
18782;BMP180;9519;51.890;8.970;2022-09-03T11:57:46;99139.00;;;23.90
18782;BMP180;9519;51.890;8.970;2022-09-03T12:02:54;99139.00;;;24.00
18782;BMP180;9519;51.890;8.970;2022-09-03T12:13:47;99147.00;;;24.20
18782;BMP180;9519;51.890;8.970;2022-09-03T12:19:00;99143.00;;;24.20
18782;BMP180;9519;51.890;8.970;2022-09-03T12:24:04;99133.00;;;24.30
18782;BMP180;9519;51.890;8.970;2022-09-03T12:29:22;99141.00;;;24.30
18782;BMP180;9519;51.890;8.970;2022-09-03T12:34:25;99132.00;;;24.40
18782;BMP180;9519;51.890;8.970;2022-09-03T12:39:29;99129.00;;;24.40
18782;BMP180;9519;51.890;8.970;2022-09-03T12:44:39;99124.00;;;24.40
18782;BMP180;9519;51.890;8.970;2022-09-03T12:49:44;99123.00;;;24.50
18782;BMP180;9519;51.890;8.970;2022-09-03T12:54:53;99128.00;;;24.60
18782;BMP180;9519;51.890;8.970;2022-09-03T13:00:05;99133.00;;;24.60
18782;BMP180;9519;51.890;8.970;2022-09-03T13:05:17;99119.00;;;24.60
18782;BMP180;9519;51.890;8.970;2022-09-03T13:10:27;99124.00;;;24.60
18782;BMP180;9519;51.890;8.970;2022-09-03T13:15:32;99118.00;;;24.60
18782;BMP180;9519;51.890;8.970;2022-09-03T13:20:45;99126.00;;;24.60
18782;BMP180;9519;51.890;8.970;2022-09-03T13:26:01;99126.00;;;24.50
18782;BMP180;9519;51.890;8.970;2022-09-03T13:31:22;99124.00;;;24.50
18782;BMP180;9519;51.890;8.970;2022-09-03T13:36:35;99131.00;;;24.50
18782;BMP180;9519;51.890;8.970;2022-09-03T13:41:48;99121.00;;;24.50
18782;BMP180;9519;51.890;8.970;2022-09-03T13:46:59;99122.00;;;24.50
18782;BMP180;9519;51.890;8.970;2022-09-03T13:52:09;99111.00;;;24.60
18782;BMP180;9519;51.890;8.970;2022-09-03T13:57:27;99113.00;;;24.70
18782;BMP180;9519;51.890;8.970;2022-09-03T14:02:49;99100.00;;;24.80
18782;BMP180;9519;51.890;8.970;2022-09-03T14:08:04;99102.00;;;25.00
18782;BMP180;9519;51.890;8.970;2022-09-03T14:13:20;99101.00;;;25.00
18782;BMP180;9519;51.890;8.970;2022-09-03T14:18:40;99108.00;;;25.40
18782;BMP180;9519;51.890;8.970;2022-09-03T14:23:50;99101.00;;;25.90
18782;BMP180;9519;51.890;8.970;2022-09-03T14:29:01;99090.00;;;26.60
18782;BMP180;9519;51.890;8.970;2022-09-03T14:34:15;99081.00;;;27.30
18782;BMP180;9519;51.890;8.970;2022-09-03T14:39:32;99096.00;;;27.60
18782;BMP180;9519;51.890;8.970;2022-09-03T14:45:06;99102.00;;;27.60
18782;BMP180;9519;51.890;8.970;2022-09-03T14:50:40;99106.00;;;27.40
18782;BMP180;9519;51.890;8.970;2022-09-03T14:56:08;99102.00;;;27.10
18782;BMP180;9519;51.890;8.970;2022-09-03T15:01:22;99106.00;;;26.80
18782;BMP180;9519;51.890;8.970;2022-09-03T15:06:47;99107.00;;;26.50
18782;BMP180;9519;51.890;8.970;2022-09-03T15:11:58;99106.00;;;26.30
18782;BMP180;9519;51.890;8.970;2022-09-03T15:17:29;99113.00;;;26.00
18782;BMP180;9519;51.890;8.970;2022-09-03T15:28:28;99116.00;;;25.60
18782;BMP180;9519;51.890;8.970;2022-09-03T15:33:42;99121.00;;;25.30
18782;BMP180;9519;51.890;8.970;2022-09-03T15:38:57;99121.00;;;25.00
18782;BMP180;9519;51.890;8.970;2022-09-03T15:44:06;99118.00;;;24.80
18782;BMP180;9519;51.890;8.970;2022-09-03T15:49:22;99117.00;;;24.50
18782;BMP180;9519;51.890;8.970;2022-09-03T15:54:40;99124.00;;;24.40
18782;BMP180;9519;51.890;8.970;2022-09-03T15:59:51;99129.00;;;24.30
18782;BMP180;9519;51.890;8.970;2022-09-03T16:05:07;99128.00;;;24.10
18782;BMP180;9519;51.890;8.970;2022-09-03T16:10:17;99127.00;;;24.00
18782;BMP180;9519;51.890;8.970;2022-09-03T16:15:24;99139.00;;;24.00
18782;BMP180;9519;51.890;8.970;2022-09-03T16:20:35;99135.00;;;23.90
18782;BMP180;9519;51.890;8.970;2022-09-03T16:25:51;99140.00;;;23.80
18782;BMP180;9519;51.890;8.970;2022-09-03T16:31:10;99147.00;;;23.80
18782;BMP180;9519;51.890;8.970;2022-09-03T16:36:36;99146.00;;;23.70
18782;BMP180;9519;51.890;8.970;2022-09-03T16:41:50;99146.00;;;23.80
18782;BMP180;9519;51.890;8.970;2022-09-03T16:47:06;99146.00;;;23.80
18782;BMP180;9519;51.890;8.970;2022-09-03T16:52:25;99153.00;;;23.90
18782;BMP180;9519;51.890;8.970;2022-09-03T16:58:01;99152.00;;;23.90
18782;BMP180;9519;51.890;8.970;2022-09-03T17:04:04;99151.00;;;23.90
18782;BMP180;9519;51.890;8.970;2022-09-03T17:09:26;99157.00;;;23.90
18782;BMP180;9519;51.890;8.970;2022-09-03T17:20:26;99157.00;;;23.80
18782;BMP180;9519;51.890;8.970;2022-09-03T17:25:37;99159.00;;;23.70
18782;BMP180;9519;51.890;8.970;2022-09-03T17:30:50;99157.00;;;23.60
18782;BMP180;9519;51.890;8.970;2022-09-03T17:36:07;99162.00;;;23.40
18782;BMP180;9519;51.890;8.970;2022-09-03T17:41:22;99164.00;;;23.20
18782;BMP180;9519;51.890;8.970;2022-09-03T17:46:41;99169.00;;;23.00
18782;BMP180;9519;51.890;8.970;2022-09-03T17:51:55;99176.00;;;22.80
18782;BMP180;9519;51.890;8.970;2022-09-03T17:57:09;99181.00;;;22.60
18782;BMP180;9519;51.890;8.970;2022-09-03T18:02:29;99187.00;;;22.40
18782;BMP180;9519;51.890;8.970;2022-09-03T18:07:42;99193.00;;;22.10
18782;BMP180;9519;51.890;8.970;2022-09-03T18:12:53;99207.00;;;21.90
18782;BMP180;9519;51.890;8.970;2022-09-03T18:18:04;99213.00;;;21.80
18782;BMP180;9519;51.890;8.970;2022-09-03T18:23:18;99222.00;;;21.60
18782;BMP180;9519;51.890;8.970;2022-09-03T18:28:46;99227.00;;;21.50
18782;BMP180;9519;51.890;8.970;2022-09-03T18:34:08;99240.00;;;21.40
18782;BMP180;9519;51.890;8.970;2022-09-03T18:39:28;99232.00;;;21.30
18782;BMP180;9519;51.890;8.970;2022-09-03T18:44:59;99236.00;;;21.20
18782;BMP180;9519;51.890;8.970;2022-09-03T18:50:28;99250.00;;;21.20
18782;BMP180;9519;51.890;8.970;2022-09-03T18:56:05;99261.00;;;21.10
18782;BMP180;9519;51.890;8.970;2022-09-03T19:01:33;99266.00;;;21.10
18782;BMP180;9519;51.890;8.970;2022-09-03T19:07:07;99271.00;;;21.10
18782;BMP180;9519;51.890;8.970;2022-09-03T19:12:45;99265.00;;;21.10
18782;BMP180;9519;51.890;8.970;2022-09-03T19:18:17;99276.00;;;21.00
18782;BMP180;9519;51.890;8.970;2022-09-03T19:23:42;99285.00;;;20.90
18782;BMP180;9519;51.890;8.970;2022-09-03T19:29:14;99294.00;;;20.80
18782;BMP180;9519;51.890;8.970;2022-09-03T19:35:11;99298.00;;;20.70
18782;BMP180;9519;51.890;8.970;2022-09-03T19:40:55;99297.00;;;20.60
18782;BMP180;9519;51.890;8.970;2022-09-03T19:46:29;99307.00;;;20.50
18782;BMP180;9519;51.890;8.970;2022-09-03T19:52:00;99311.00;;;20.30
18782;BMP180;9519;51.890;8.970;2022-09-03T19:57:25;99320.00;;;20.10
18782;BMP180;9519;51.890;8.970;2022-09-03T20:02:47;99330.00;;;20.00
18782;BMP180;9519;51.890;8.970;2022-09-03T20:08:07;99337.00;;;19.80
18782;BMP180;9519;51.890;8.970;2022-09-03T20:13:28;99346.00;;;19.70
18782;BMP180;9519;51.890;8.970;2022-09-03T20:18:58;99348.00;;;19.50
18782;BMP180;9519;51.890;8.970;2022-09-03T20:24:20;99359.00;;;19.40
18782;BMP180;9519;51.890;8.970;2022-09-03T20:29:50;99359.00;;;19.20
18782;BMP180;9519;51.890;8.970;2022-09-03T20:35:07;99363.00;;;19.00
18782;BMP180;9519;51.890;8.970;2022-09-03T20:40:24;99377.00;;;18.90
18782;BMP180;9519;51.890;8.970;2022-09-03T20:45:36;99391.00;;;18.70
18782;BMP180;9519;51.890;8.970;2022-09-03T20:50:52;99390.00;;;18.50
18782;BMP180;9519;51.890;8.970;2022-09-03T20:56:02;99392.00;;;18.40
18782;BMP180;9519;51.890;8.970;2022-09-03T21:01:24;99393.00;;;18.20
18782;BMP180;9519;51.890;8.970;2022-09-03T21:06:36;99398.00;;;18.10
18782;BMP180;9519;51.890;8.970;2022-09-03T21:11:52;99402.00;;;17.90
18782;BMP180;9519;51.890;8.970;2022-09-03T21:17:23;99404.00;;;17.80
18782;BMP180;9519;51.890;8.970;2022-09-03T21:22:41;99412.00;;;17.60
18782;BMP180;9519;51.890;8.970;2022-09-03T21:27:51;99409.00;;;17.50
18782;BMP180;9519;51.890;8.970;2022-09-03T21:33:04;99422.00;;;17.40
18782;BMP180;9519;51.890;8.970;2022-09-03T21:38:12;99414.00;;;17.30
18782;BMP180;9519;51.890;8.970;2022-09-03T21:43:20;99423.00;;;17.10
18782;BMP180;9519;51.890;8.970;2022-09-03T21:48:32;99424.00;;;17.00
18782;BMP180;9519;51.890;8.970;2022-09-03T21:53:45;99424.00;;;16.90
18782;BMP180;9519;51.890;8.970;2022-09-03T21:59:03;99437.00;;;16.80
18782;BMP180;9519;51.890;8.970;2022-09-03T22:04:07;99438.00;;;16.70
18782;BMP180;9519;51.890;8.970;2022-09-03T22:09:16;99442.00;;;16.60
18782;BMP180;9519;51.890;8.970;2022-09-03T22:14:21;99441.00;;;16.50
18782;BMP180;9519;51.890;8.970;2022-09-03T22:19:25;99338.00;;;16.40
18782;BMP180;9519;51.890;8.970;2022-09-03T22:24:38;99332.00;;;16.30
18782;BMP180;9519;51.890;8.970;2022-09-03T22:29:52;99336.00;;;16.20
18782;BMP180;9519;51.890;8.970;2022-09-03T22:40:56;99346.00;;;16.00
18782;BMP180;9519;51.890;8.970;2022-09-03T22:46:11;99348.00;;;15.90
18782;BMP180;9519;51.890;8.970;2022-09-03T22:51:16;99345.00;;;15.80
18782;BMP180;9519;51.890;8.970;2022-09-03T22:56:20;99348.00;;;15.70
18782;BMP180;9519;51.890;8.970;2022-09-03T23:01:28;99354.00;;;15.60
18782;BMP180;9519;51.890;8.970;2022-09-03T23:06:40;99357.00;;;15.60
18782;BMP180;9519;51.890;8.970;2022-09-03T23:11:56;99364.00;;;15.50
18782;BMP180;9519;51.890;8.970;2022-09-03T23:17:05;99370.00;;;15.40
18782;BMP180;9519;51.890;8.970;2022-09-03T23:22:15;99375.00;;;15.40
18782;BMP180;9519;51.890;8.970;2022-09-03T23:27:26;99382.00;;;15.30
18782;BMP180;9519;51.890;8.970;2022-09-03T23:32:30;99376.00;;;15.20
18782;BMP180;9519;51.890;8.970;2022-09-03T23:37:52;99385.00;;;15.10
18782;BMP180;9519;51.890;8.970;2022-09-03T23:48:47;99377.00;;;15.00
18782;BMP180;9519;51.890;8.970;2022-09-03T23:54:06;99380.00;;;15.00
18782;BMP180;9519;51.890;8.970;2022-09-03T23:59:22;99386.00;;;14.90
